Time;durP1;ratioP1;P1;durP2;ratioP2;P2;SDS_P1;SDS_P2;PMS_P1;PMS_P2;Temp;Humidity;BMP_temperature;BMP_pressure;BME280_temperature;BME280_humidity;BME280_pressure;Samples;Min_cycle;Max_cycle;Signal;HPM_P1;HPM_P2
2023/05/27 00:01:54;;;;;;;13.82;3.50;;;12.80;1.00;;;;;;5014036;28;20030;-78
2023/05/27 00:04:20;;;;;;;11.50;2.95;;;12.80;1.00;;;;;;5010523;28;20026;-78
2023/05/27 00:06:47;;;;;;;9.13;3.08;;;12.70;1.00;;;;;;5011072;28;20025;-77
2023/05/27 00:09:13;;;;;;;10.50;2.67;;;12.60;1.00;;;;;;5009031;28;20029;-78
2023/05/27 00:11:40;;;;;;;13.70;3.90;;;12.40;1.00;;;;;;5011570;28;20045;-78
2023/05/27 00:14:06;;;;;;;9.98;3.22;;;12.40;1.00;;;;;;5005843;28;20037;-77
2023/05/27 00:16:35;;;;;;;17.23;4.78;;;12.40;1.00;;;;;;5010389;28;20030;-77
2023/05/27 00:19:02;;;;;;;9.38;3.20;;;12.30;1.00;;;;;;5013356;28;20029;-83
2023/05/27 00:21:28;;;;;;;14.95;4.03;;;12.20;1.00;;;;;;5016137;28;20045;-76
2023/05/27 00:23:57;;;;;;;12.95;3.80;;;12.20;1.00;;;;;;5011488;28;20026;-78
2023/05/27 00:26:24;;;;;;;10.50;3.03;;;12.20;1.00;;;;;;5010144;28;20025;-77
2023/05/27 00:28:52;;;;;;;11.02;3.03;;;12.10;1.00;;;;;;5010600;28;20363;-78
2023/05/27 00:31:18;;;;;;;10.25;3.20;;;12.10;1.00;;;;;;5009397;28;20042;-76
2023/05/27 00:33:45;;;;;;;11.00;2.63;;;12.00;1.00;;;;;;5009477;28;20387;-77
2023/05/27 00:36:12;;;;;;;9.85;2.72;;;12.00;1.00;;;;;;5010643;28;20038;-78
2023/05/27 00:38:38;;;;;;;11.15;3.28;;;11.90;1.00;;;;;;5010536;28;20029;-76
2023/05/27 00:41:05;;;;;;;9.23;2.90;;;11.90;1.00;;;;;;5010253;28;20049;-77
2023/05/27 00:43:32;;;;;;;7.28;3.25;;;11.90;1.00;;;;;;5011219;28;20034;-76
2023/05/27 00:45:58;;;;;;;13.57;3.35;;;11.90;1.00;;;;;;5011051;28;20030;-82
2023/05/27 00:48:25;;;;;;;8.32;3.17;;;11.90;1.00;;;;;;5010262;28;20041;-78
2023/05/27 00:50:52;;;;;;;17.05;4.03;;;11.80;1.00;;;;;;5011974;28;20049;-77
2023/05/27 00:53:20;;;;;;;17.35;2.63;;;11.70;1.00;;;;;;5010344;28;20132;-77
2023/05/27 00:55:47;;;;;;;9.32;2.95;;;11.70;1.00;;;;;;5011372;28;20097;-77
2023/05/27 00:58:13;;;;;;;14.13;4.70;;;11.70;1.00;;;;;;5010502;28;20033;-77
2023/05/27 01:00:40;;;;;;;16.90;4.20;;;11.60;1.00;;;;;;4999859;28;20794;-77
2023/05/27 01:03:07;;;;;;;8.18;2.95;;;11.50;1.00;;;;;;5007200;28;20026;-82
2023/05/27 01:05:33;;;;;;;6.47;3.08;;;11.40;1.00;;;;;;5004872;28;20030;-77
2023/05/27 01:08:12;;;;;;;12.88;2.55;;;11.40;1.00;;;;;;5011727;28;20029;-81
2023/05/27 01:10:49;;;;;;;17.77;4.03;;;11.40;1.00;;;;;;5022707;28;20046;-78
2023/05/27 01:13:21;;;;;;;7.93;3.22;;;11.30;1.00;;;;;;5010329;28;20018;-77
2023/05/27 01:15:49;;;;;;;9.40;3.53;;;11.30;1.00;;;;;;5006537;28;20030;-76
2023/05/27 01:18:18;;;;;;;10.13;3.20;;;11.30;1.00;;;;;;5000965;28;20041;-82
2023/05/27 01:20:48;;;;;;;9.15;2.30;;;11.30;1.00;;;;;;5005562;28;20048;-76
2023/05/27 01:23:14;;;;;;;13.60;3.95;;;11.30;1.00;;;;;;5001369;28;20077;-81
2023/05/27 01:25:41;;;;;;;7.53;2.75;;;11.30;1.00;;;;;;5014285;28;20367;-76
2023/05/27 01:28:07;;;;;;;8.32;3.28;;;11.30;1.00;;;;;;5029246;28;20478;-76
2023/05/27 01:30:33;;;;;;;8.10;3.92;;;11.20;1.00;;;;;;5012384;28;20030;-77
2023/05/27 01:33:12;;;;;;;14.88;4.10;;;11.20;1.00;;;;;;5013440;28;20025;-83
2023/05/27 01:35:53;;;;;;;13.10;2.80;;;11.20;1.00;;;;;;5009270;28;20042;-76
2023/05/27 01:38:22;;;;;;;10.30;2.88;;;11.20;1.00;;;;;;5013448;28;20033;-77
2023/05/27 01:40:49;;;;;;;9.82;2.95;;;11.20;1.00;;;;;;5014384;28;20462;-77
2023/05/27 01:43:18;;;;;;;13.13;3.33;;;11.10;1.00;;;;;;5007280;28;20045;-78
2023/05/27 01:45:44;;;;;;;16.67;3.30;;;11.00;1.00;;;;;;5012306;28;20415;-78
2023/05/27 01:48:11;;;;;;;7.40;3.53;;;11.10;1.00;;;;;;5013479;28;20061;-78
2023/05/27 01:50:38;;;;;;;9.25;3.25;;;11.00;1.00;;;;;;5014516;28;20041;-78
2023/05/27 01:53:05;;;;;;;9.90;3.53;;;11.00;1.00;;;;;;5012982;28;20037;-84
2023/05/27 01:55:31;;;;;;;14.25;3.25;;;11.00;1.00;;;;;;5003399;28;20811;-77
2023/05/27 01:57:58;;;;;;;10.45;3.42;;;10.90;1.00;;;;;;5009754;28;20038;-79
2023/05/27 02:00:24;;;;;;;9.50;3.13;;;11.00;1.00;;;;;;5010188;28;20057;-78
2023/05/27 02:02:52;;;;;;;8.70;2.97;;;10.90;1.00;;;;;;5029140;28;20038;-76
2023/05/27 02:05:18;;;;;;;22.98;5.05;;;10.90;1.00;;;;;;5027205;28;20049;-77
2023/05/27 02:07:44;;;;;;;16.83;3.70;;;10.90;1.00;;;;;;5024077;28;20041;-76
2023/05/27 02:10:11;;;;;;;15.98;2.67;;;10.90;1.00;;;;;;5012810;28;20024;-76
2023/05/27 02:12:37;;;;;;;11.10;3.42;;;10.90;1.00;;;;;;5027323;28;20049;-78
2023/05/27 02:15:06;;;;;;;16.80;3.28;;;10.90;1.00;;;;;;5009345;28;20046;-85
2023/05/27 02:17:32;;;;;;;11.57;3.60;;;10.90;1.00;;;;;;5026400;28;20114;-77
2023/05/27 02:19:58;;;;;;;9.80;3.30;;;10.90;1.00;;;;;;5010949;28;20028;-75
2023/05/27 02:22:24;;;;;;;8.27;2.53;;;10.90;1.00;;;;;;5015836;28;20030;-75
2023/05/27 02:24:51;;;;;;;10.82;3.10;;;10.80;1.00;;;;;;5013177;28;20355;-79
2023/05/27 02:27:17;;;;;;;9.55;3.38;;;10.80;1.00;;;;;;5011628;28;20402;-76
2023/05/27 02:29:43;;;;;;;10.05;3.28;;;10.80;1.00;;;;;;5028369;28;20467;-75
2023/05/27 02:32:10;;;;;;;9.43;3.10;;;10.70;1.00;;;;;;5011652;28;20049;-76
2023/05/27 02:34:37;;;;;;;8.52;3.17;;;10.70;1.00;;;;;;5013404;28;20049;-76
2023/05/27 02:37:05;;;;;;;10.77;4.38;;;10.60;1.00;;;;;;5011097;28;20366;-82
2023/05/27 02:39:31;;;;;;;5.97;2.65;;;10.60;1.00;;;;;;5009114;28;20044;-76
2023/05/27 02:41:58;;;;;;;8.45;2.58;;;10.60;1.00;;;;;;5009227;28;20041;-76
2023/05/27 02:44:24;;;;;;;10.18;3.33;;;10.50;1.00;;;;;;5010266;28;20053;-78
2023/05/27 02:46:51;;;;;;;12.13;3.08;;;10.40;1.00;;;;;;5011770;28;20367;-76
2023/05/27 02:49:18;;;;;;;12.90;3.53;;;10.30;1.00;;;;;;5008981;28;20045;-76
2023/05/27 02:51:44;;;;;;;15.40;3.33;;;10.20;1.00;;;;;;5010606;28;20065;-77
2023/05/27 02:54:10;;;;;;;8.95;4.00;;;10.10;1.00;;;;;;5011670;28;20042;-76
2023/05/27 02:56:36;;;;;;;12.80;3.35;;;10.10;1.00;;;;;;5021222;28;20039;-76
2023/05/27 02:59:03;;;;;;;13.77;3.42;;;9.90;5.80;;;;;;5027370;28;20472;-81
2023/05/27 03:01:29;;;;;;;13.43;4.35;;;10.00;10.20;;;;;;5012240;28;20030;-76
2023/05/27 03:03:55;;;;;;;12.77;4.00;;;9.90;12.90;;;;;;5027807;28;20049;-76
2023/05/27 03:06:21;;;;;;;9.00;3.13;;;9.80;21.00;;;;;;5010646;28;20037;-76
2023/05/27 03:08:47;;;;;;;8.93;3.47;;;9.70;26.70;;;;;;5012774;28;20022;-77
2023/05/27 03:11:14;;;;;;;11.27;3.47;;;9.70;30.50;;;;;;5011942;28;20033;-77
2023/05/27 03:13:40;;;;;;;10.35;3.47;;;9.70;32.40;;;;;;5012368;28;20038;-77
2023/05/27 03:16:06;;;;;;;12.98;3.67;;;9.70;35.90;;;;;;5009872;28;20451;-82
2023/05/27 03:18:32;;;;;;;12.85;3.75;;;9.60;36.50;;;;;;5010799;28;20456;-76
2023/05/27 03:20:58;;;;;;;10.35;4.07;;;9.70;34.40;;;;;;5014358;28;20030;-76
2023/05/27 03:23:25;;;;;;;12.25;4.13;;;9.70;27.60;;;;;;5010900;28;20061;-76
2023/05/27 03:25:51;;;;;;;10.48;3.22;;;9.70;25.80;;;;;;5008191;28;20044;-76
2023/05/27 03:28:17;;;;;;;9.77;2.50;;;9.70;25.70;;;;;;5006596;28;20038;-76
2023/05/27 03:30:43;;;;;;;18.00;4.53;;;9.70;23.10;;;;;;5010146;28;20548;-76
2023/05/27 03:33:17;;;;;;;13.30;3.92;;;9.70;23.10;;;;;;5009864;28;20045;-76
2023/05/27 03:35:44;;;;;;;13.25;3.75;;;9.80;23.70;;;;;;5006188;28;20049;-76
2023/05/27 03:38:11;;;;;;;11.57;3.90;;;9.80;19.80;;;;;;4993379;28;20494;-79
2023/05/27 03:40:37;;;;;;;19.13;3.80;;;9.80;15.00;;;;;;5012105;28;20030;-76
2023/05/27 03:43:07;;;;;;;9.07;4.60;;;9.80;14.20;;;;;;5005443;28;20038;-81
2023/05/27 03:45:33;;;;;;;10.80;3.97;;;9.80;17.20;;;;;;5007777;28;20481;-76
2023/05/27 03:48:00;;;;;;;14.23;3.72;;;9.80;19.80;;;;;;5007908;28;20045;-77
2023/05/27 03:50:27;;;;;;;9.05;3.28;;;9.80;18.70;;;;;;5007004;28;20034;-76
2023/05/27 03:52:54;;;;;;;11.18;3.25;;;9.80;19.70;;;;;;5026695;28;20058;-77
2023/05/27 03:55:20;;;;;;;12.00;4.00;;;9.80;18.20;;;;;;5022548;28;20482;-77
2023/05/27 03:57:47;;;;;;;13.02;3.65;;;9.80;17.00;;;;;;5021000;28;20269;-80
2023/05/27 04:00:13;;;;;;;12.50;2.90;;;9.90;17.20;;;;;;5012478;28;20026;-77
2023/05/27 04:02:49;;;;;;;10.15;3.47;;;9.90;14.20;;;;;;5013677;28;20045;-77
2023/05/27 04:05:16;;;;;;;17.83;3.47;;;9.90;13.40;;;;;;5004976;28;20037;-76
2023/05/27 04:07:42;;;;;;;8.18;3.17;;;9.90;13.90;;;;;;5010771;28;20037;-80
2023/05/27 04:10:09;;;;;;;11.98;4.10;;;10.00;11.20;;;;;;5011240;28;20053;-82
2023/05/27 04:12:36;;;;;;;12.75;3.65;;;10.00;9.50;;;;;;5011624;28;20479;-76
2023/05/27 04:15:02;;;;;;;9.90;3.35;;;10.00;8.70;;;;;;5024132;28;20047;-76
2023/05/27 04:17:30;;;;;;;11.93;4.15;;;10.00;13.40;;;;;;5022493;28;20034;-76
2023/05/27 04:19:56;;;;;;;8.35;3.38;;;10.20;10.30;;;;;;4989329;28;20049;-77
2023/05/27 04:22:24;;;;;;;12.73;4.65;;;10.20;4.60;;;;;;5010445;28;20041;-77
2023/05/27 04:24:52;;;;;;;8.38;3.72;;;10.30;1.50;;;;;;5011657;28;20363;-76
2023/05/27 04:27:19;;;;;;;14.15;4.88;;;10.60;1.00;;;;;;5003314;28;20038;-78
2023/05/27 04:29:47;;;;;;;18.58;7.63;;;11.10;1.00;;;;;;5002105;28;20033;-77
2023/05/27 04:32:17;;;;;;;12.10;4.20;;;11.60;1.00;;;;;;5002363;28;20053;-77
2023/05/27 04:34:43;;;;;;;7.22;2.83;;;12.10;1.00;;;;;;5003129;28;20387;-77
2023/05/27 04:37:10;;;;;;;15.52;3.90;;;12.20;1.00;;;;;;5006971;28;20383;-81
2023/05/27 04:39:40;;;;;;;15.20;3.58;;;12.20;1.00;;;;;;5010181;28;20447;-77
2023/05/27 04:42:08;;;;;;;14.52;3.00;;;12.30;1.00;;;;;;5001774;28;20399;-77
2023/05/27 04:44:40;;;;;;;12.20;4.03;;;12.20;1.00;;;;;;5023216;28;20045;-78
2023/05/27 04:47:07;;;;;;;12.15;2.75;;;12.30;1.00;;;;;;5010144;28;20046;-78
2023/05/27 04:49:34;;;;;;;10.20;2.67;;;12.30;1.00;;;;;;5009564;28;20032;-77
2023/05/27 04:52:01;;;;;;;13.32;5.00;;;12.50;1.00;;;;;;5009069;28;20391;-76
2023/05/27 04:54:27;;;;;;;9.73;3.03;;;12.70;1.00;;;;;;5010348;28;20398;-78
2023/05/27 04:56:55;;;;;;;15.63;3.45;;;12.80;1.00;;;;;;5012338;28;20034;-78
2023/05/27 04:59:45;;;;;;;10.15;3.13;;;13.30;1.00;;;;;;5011473;28;20482;-77
2023/05/27 05:02:21;;;;;;;10.73;3.88;;;13.20;1.00;;;;;;5006188;28;20039;-82
2023/05/27 05:05:06;;;;;;;10.25;3.15;;;13.30;1.00;;;;;;5029924;28;20041;-77
2023/05/27 05:07:33;;;;;;;7.15;2.50;;;13.30;1.00;;;;;;5007864;28;20038;-78
2023/05/27 05:10:00;;;;;;;10.13;3.08;;;13.60;1.00;;;;;;5008520;28;20042;-77
2023/05/27 05:12:35;;;;;;;8.93;3.03;;;13.70;1.00;;;;;;5012783;28;20483;-77
2023/05/27 05:15:02;;;;;;;5.53;2.50;;;13.70;1.00;;;;;;5013122;28;20049;-77
2023/05/27 05:17:28;;;;;;;11.40;3.42;;;13.70;1.00;;;;;;5010433;28;20375;-79
2023/05/27 05:19:56;;;;;;;6.95;2.28;;;13.70;1.00;;;;;;5013190;28;20045;-78
2023/05/27 05:22:23;;;;;;;6.20;2.33;;;13.50;1.00;;;;;;5015893;28;20371;-77
2023/05/27 05:24:50;;;;;;;7.65;3.13;;;13.50;1.00;;;;;;5010489;28;20034;-77
2023/05/27 05:27:18;;;;;;;7.90;3.17;;;13.60;1.00;;;;;;5005395;28;20061;-77
2023/05/27 05:29:44;;;;;;;7.85;3.13;;;13.80;99.90;;;;;;5009674;28;20042;-77
2023/05/27 05:32:11;;;;;;;13.93;2.90;;;13.80;99.90;;;;;;5012227;28;20046;-84
2023/05/27 05:34:38;;;;;;;8.60;3.55;;;14.00;99.90;;;;;;5008915;28;20041;-77
2023/05/27 05:37:07;;;;;;;8.67;3.27;;;13.80;99.90;;;;;;5026685;28;20038;-78
2023/05/27 05:39:33;;;;;;;17.63;4.03;;;13.70;99.90;;;;;;5009074;28;20809;-76
2023/05/27 05:41:59;;;;;;;8.77;2.60;;;13.90;99.90;;;;;;5014189;28;20033;-76
2023/05/27 05:44:26;;;;;;;9.65;3.10;;;14.50;99.90;;;;;;5027766;28;20053;-77
2023/05/27 05:46:53;;;;;;;10.63;2.88;;;14.30;99.90;;;;;;5028340;28;20061;-76
2023/05/27 05:49:22;;;;;;;10.85;2.55;;;14.00;99.90;;;;;;5026381;28;20038;-76
2023/05/27 05:51:49;;;;;;;11.00;2.67;;;14.10;99.90;;;;;;5011777;28;20377;-76
2023/05/27 05:54:16;;;;;;;11.10;3.60;;;14.40;99.90;;;;;;5009852;28;20046;-77
2023/05/27 05:56:47;;;;;;;13.68;2.83;;;14.30;99.90;;;;;;5011291;28;20037;-77
2023/05/27 05:59:13;;;;;;;9.27;3.80;;;14.50;99.90;;;;;;4975054;28;20034;-85
2023/05/27 06:01:40;;;;;;;8.25;2.78;;;14.70;99.90;;;;;;5008905;28;20357;-79
2023/05/27 06:04:06;;;;;;;7.60;2.58;;;14.60;99.90;;;;;;5008608;28;20041;-79
2023/05/27 06:06:40;;;;;;;14.25;3.25;;;14.80;99.90;;;;;;5007998;28;20038;-79
2023/05/27 06:09:26;;;;;;;14.27;2.90;;;14.70;99.90;;;;;;5007277;28;20041;-78
2023/05/27 06:11:56;;;;;;;10.48;2.97;;;14.50;99.90;;;;;;5009261;28;20069;-81
2023/05/27 06:14:23;;;;;;;11.18;3.15;;;14.60;99.90;;;;;;5007910;28;20328;-78
2023/05/27 06:16:50;;;;;;;16.50;3.20;;;14.60;99.90;;;;;;5012069;28;20049;-78
2023/05/27 06:19:19;;;;;;;17.13;2.78;;;14.60;99.90;;;;;;5011319;28;20052;-79
2023/05/27 06:21:46;;;;;;;10.20;2.58;;;15.20;99.90;;;;;;5010169;28;20049;-78
2023/05/27 06:24:35;;;;;;;6.20;2.75;;;15.30;99.90;;;;;;5008795;28;20057;-77
2023/05/27 06:27:13;;;;;;;6.63;2.63;;;15.50;99.90;;;;;;5011109;28;20045;-81
2023/05/27 06:29:40;;;;;;;10.07;2.70;;;15.80;99.90;;;;;;5002134;28;20042;-78
2023/05/27 06:32:07;;;;;;;11.98;2.92;;;15.80;99.90;;;;;;4998096;28;20045;-77
2023/05/27 06:34:34;;;;;;;10.02;2.80;;;16.10;99.90;;;;;;5008541;28;20228;-77
2023/05/27 06:37:01;;;;;;;8.27;2.17;;;16.10;99.90;;;;;;4995101;28;20861;-76
2023/05/27 06:39:27;;;;;;;6.85;2.50;;;16.00;99.90;;;;;;4998895;28;20044;-76
2023/05/27 06:41:53;;;;;;;11.75;3.78;;;16.30;99.90;;;;;;5010225;28;20053;-78
2023/05/27 06:44:40;;;;;;;13.38;3.30;;;16.80;99.90;;;;;;5005629;28;20041;-77
2023/05/27 06:47:27;;;;;;;8.63;2.97;;;16.60;99.90;;;;;;5009124;28;20459;-77
2023/05/27 06:49:53;;;;;;;10.13;3.25;;;16.30;99.90;;;;;;5006479;28;20488;-76
2023/05/27 06:52:20;;;;;;;11.02;3.03;;;16.40;99.90;;;;;;5012436;28;20482;-76
2023/05/27 06:55:06;;;;;;;8.23;2.78;;;17.00;99.90;;;;;;5010959;28;20029;-75
2023/05/27 06:57:50;;;;;;;10.98;3.83;;;16.90;99.90;;;;;;5011923;28;20041;-76
2023/05/27 07:00:27;;;;;;;8.23;2.50;;;17.60;99.90;;;;;;5010002;28;20042;-81
2023/05/27 07:03:12;;;;;;;8.57;2.38;;;17.80;99.90;;;;;;5023773;28;20379;-83
2023/05/27 07:05:39;;;;;;;10.18;2.88;;;18.40;99.90;;;;;;5010144;28;20044;-78
2023/05/27 07:08:06;;;;;;;10.50;3.40;;;18.40;99.90;;;;;;5009368;28;20639;-79
2023/05/27 07:10:32;;;;;;;5.38;2.60;;;18.40;99.90;;;;;;5008749;28;20057;-75
2023/05/27 07:12:58;;;;;;;10.23;2.78;;;18.10;99.90;;;;;;5025801;28;20054;-78
2023/05/27 07:15:38;;;;;;;7.30;3.55;;;18.40;99.90;;;;;;5026256;28;20169;-76
2023/05/27 07:18:04;;;;;;;12.57;3.05;;;18.60;99.90;;;;;;5008659;28;20085;-76
2023/05/27 07:20:33;;;;;;;10.18;3.22;;;18.20;99.90;;;;;;5004399;28;20033;-75
2023/05/27 07:23:01;;;;;;;7.00;2.63;;;18.00;99.90;;;;;;5020103;28;20037;-76
2023/05/27 07:25:27;;;;;;;10.98;2.42;;;18.40;99.90;;;;;;5025331;28;20041;-76
2023/05/27 07:27:54;;;;;;;10.73;2.45;;;18.20;99.90;;;;;;5012303;28;20481;-75
2023/05/27 07:30:20;;;;;;;8.88;2.63;;;19.00;99.90;;;;;;5024033;28;20034;-76
2023/05/27 07:32:52;;;;;;;12.70;2.65;;;19.60;99.90;;;;;;5023990;28;20042;-80
2023/05/27 07:35:18;;;;;;;11.20;3.60;;;19.70;99.90;;;;;;5010136;28;20046;-81
2023/05/27 07:37:44;;;;;;;6.53;2.40;;;20.30;99.90;;;;;;5013217;28;20033;-81
2023/05/27 07:40:11;;;;;;;7.05;2.55;;;20.70;99.90;;;;;;5012822;28;20022;-79
2023/05/27 07:42:39;;;;;;;6.55;2.13;;;20.20;99.90;;;;;;4996875;28;20463;-80
2023/05/27 07:45:06;;;;;;;8.93;2.45;;;20.30;99.90;;;;;;5005990;28;20034;-80
2023/05/27 07:47:33;;;;;;;8.75;2.58;;;20.40;99.90;;;;;;5000527;28;20381;-75
2023/05/27 07:49:59;;;;;;;12.23;3.08;;;21.10;99.90;;;;;;5012562;28;20033;-75
2023/05/27 07:52:28;;;;;;;11.45;3.80;;;19.70;99.90;;;;;;5012466;28;20050;-76
2023/05/27 07:54:56;;;;;;;8.05;2.42;;;19.50;99.90;;;;;;5007496;28;20048;-76
2023/05/27 07:57:25;;;;;;;5.47;2.40;;;19.70;99.90;;;;;;5009949;28;20041;-76
2023/05/27 07:59:51;;;;;;;8.60;2.95;;;20.00;99.90;;;;;;5010056;28;20030;-75
2023/05/27 08:02:19;;;;;;;7.18;3.15;;;19.30;99.90;;;;;;5009676;28;20509;-77
2023/05/27 08:04:48;;;;;;;9.63;2.97;;;19.70;99.90;;;;;;5010108;28;20045;-81
2023/05/27 08:07:40;;;;;;;13.05;2.97;;;20.50;99.90;;;;;;4987662;28;20041;-77
2023/05/27 08:10:16;;;;;;;6.25;2.63;;;20.40;99.90;;;;;;5008081;28;20041;-79
2023/05/27 08:12:56;;;;;;;7.35;2.42;;;20.80;99.90;;;;;;5010090;28;20053;-75
2023/05/27 08:15:31;;;;;;;11.90;3.38;;;21.10;99.90;;;;;;5008976;28;20057;-74
2023/05/27 08:18:04;;;;;;;7.25;2.10;;;20.90;99.90;;;;;;5007846;28;20046;-75
2023/05/27 08:20:54;;;;;;;8.80;2.85;;;20.40;99.90;;;;;;4999624;28;20174;-76
2023/05/27 08:23:31;;;;;;;6.88;2.60;;;21.40;99.90;;;;;;5023307;28;20045;-74
2023/05/27 08:26:18;;;;;;;11.93;2.95;;;21.50;99.90;;;;;;4985969;28;20041;-80
2023/05/27 08:29:16;;;;;;;7.38;3.35;;;21.00;99.90;;;;;;4976863;28;20042;-81
2023/05/27 08:32:01;;;;;;;8.50;2.78;;;20.80;99.90;;;;;;5012513;28;20053;-77
2023/05/27 08:34:27;;;;;;;9.07;2.33;;;21.40;99.90;;;;;;5012674;28;20034;-75
2023/05/27 08:36:53;;;;;;;8.52;2.88;;;20.90;99.90;;;;;;5013117;28;20053;-75
2023/05/27 08:39:20;;;;;;;9.55;2.63;;;20.90;99.90;;;;;;5008195;28;20037;-77
2023/05/27 08:41:54;;;;;;;7.68;2.50;;;20.90;99.90;;;;;;5009741;28;20041;-75
2023/05/27 08:44:23;;;;;;;8.32;2.45;;;21.00;99.90;;;;;;5009585;28;20399;-80
2023/05/27 08:46:58;;;;;;;8.07;2.85;;;21.50;99.90;;;;;;5016616;28;20033;-77
2023/05/27 08:49:25;;;;;;;10.32;2.83;;;21.50;99.90;;;;;;5005903;28;20042;-77
2023/05/27 08:51:54;;;;;;;12.10;3.35;;;21.50;99.90;;;;;;5013265;28;20360;-79
2023/05/27 08:54:21;;;;;;;7.03;2.72;;;21.80;99.90;;;;;;5012176;28;20378;-78
2023/05/27 08:56:52;;;;;;;7.72;2.70;;;21.90;99.90;;;;;;5012502;28;20030;-77
2023/05/27 08:59:18;;;;;;;11.35;3.45;;;21.90;99.90;;;;;;4991685;28;20053;-79
2023/05/27 09:01:45;;;;;;;10.13;3.00;;;21.50;99.90;;;;;;5013449;28;20050;-78
2023/05/27 09:04:11;;;;;;;7.40;2.80;;;21.00;99.90;;;;;;5007458;28;20037;-78
2023/05/27 09:06:38;;;;;;;10.23;3.13;;;21.20;99.90;;;;;;5008257;28;20617;-78
2023/05/27 09:09:07;;;;;;;10.25;2.53;;;21.50;99.90;;;;;;5014524;28;20034;-80
2023/05/27 09:11:38;;;;;;;9.48;3.25;;;21.90;99.90;;;;;;5010413;28;20045;-79
2023/05/27 09:14:04;;;;;;;6.93;2.40;;;22.20;99.90;;;;;;5014774;28;20037;-79
2023/05/27 09:16:30;;;;;;;12.68;2.72;;;22.40;99.90;;;;;;5012322;28;20030;-78
2023/05/27 09:18:57;;;;;;;8.65;2.83;;;21.80;99.90;;;;;;5014661;28;20030;-77
2023/05/27 09:21:26;;;;;;;6.85;2.83;;;21.20;99.90;;;;;;5027538;28;20053;-80
2023/05/27 09:23:57;;;;;;;7.60;2.80;;;21.10;99.90;;;;;;5014591;28;20030;-81
2023/05/27 09:26:23;;;;;;;9.98;3.33;;;20.80;99.90;;;;;;4995377;28;20463;-78
2023/05/27 09:28:49;;;;;;;8.02;2.95;;;21.00;99.90;;;;;;5014346;28;20026;-79
2023/05/27 09:31:15;;;;;;;6.90;2.60;;;21.40;99.90;;;;;;5014693;28;20030;-77
2023/05/27 09:33:42;;;;;;;9.63;2.50;;;21.30;99.90;;;;;;5027028;28;20050;-78
2023/05/27 09:36:08;;;;;;;7.53;2.83;;;21.30;99.90;;;;;;5009874;28;20459;-76
2023/05/27 09:38:35;;;;;;;8.68;3.05;;;21.70;99.90;;;;;;5013759;28;20061;-77
2023/05/27 09:41:02;;;;;;;11.57;2.97;;;21.80;99.90;;;;;;5012584;28;20060;-78
2023/05/27 09:43:29;;;;;;;7.07;2.70;;;22.10;99.90;;;;;;5014033;28;20048;-78
2023/05/27 09:46:03;;;;;;;9.85;4.20;;;22.00;99.90;;;;;;5005712;28;20486;-79
2023/05/27 09:48:31;;;;;;;11.40;3.58;;;22.30;99.90;;;;;;4992413;28;20018;-78
2023/05/27 09:50:59;;;;;;;7.22;3.00;;;22.00;99.90;;;;;;5007841;28;20026;-77
2023/05/27 09:53:26;;;;;;;7.65;3.00;;;22.10;99.90;;;;;;5023492;28;20100;-75
2023/05/27 09:55:56;;;;;;;12.20;2.85;;;22.10;99.90;;;;;;5012937;28;20041;-77
2023/05/27 09:58:24;;;;;;;7.88;2.97;;;22.40;99.90;;;;;;5013303;28;20086;-78
2023/05/27 10:00:50;;;;;;;12.00;3.28;;;22.20;99.90;;;;;;5012924;28;20030;-78
2023/05/27 10:03:21;;;;;;;8.27;2.70;;;21.30;99.90;;;;;;5029209;28;20046;-77
2023/05/27 10:05:49;;;;;;;;;;;22.10;99.90;;;;;;5014557;28;20022;-75
2023/05/27 10:08:15;;;;;;;6.13;2.60;;;23.10;99.90;;;;;;5010373;28;19906;-75
2023/05/27 10:10:42;;;;;;;11.75;2.90;;;22.90;99.90;;;;;;5006072;28;20039;-76
2023/05/27 10:13:09;;;;;;;9.23;2.70;;;22.80;99.90;;;;;;5013637;28;20041;-78
2023/05/27 10:15:35;;;;;;;14.95;3.30;;;22.70;99.90;;;;;;5008442;28;20026;-78
2023/05/27 10:18:09;;;;;;;8.50;2.90;;;22.60;99.90;;;;;;5022396;28;20034;-76
2023/05/27 10:20:41;;;;;;;7.82;2.90;;;23.10;99.90;;;;;;4997762;28;20026;-76
2023/05/27 10:23:25;;;;;;;9.38;2.83;;;23.60;99.90;;;;;;4999174;28;20041;-76
2023/05/27 10:25:54;;;;;;;9.55;3.05;;;23.40;99.90;;;;;;5011600;28;20032;-79
2023/05/27 10:28:32;;;;;;;8.85;3.10;;;23.00;99.90;;;;;;5013383;28;20053;-81
2023/05/27 10:31:10;;;;;;;9.43;3.17;;;21.90;99.90;;;;;;5013765;28;20037;-73
2023/05/27 10:33:43;;;;;;;10.77;2.85;;;22.10;99.90;;;;;;5009119;28;20065;-79
2023/05/27 10:36:17;;;;;;;9.63;3.45;;;22.10;99.90;;;;;;5009662;28;20476;-80
2023/05/27 10:39:05;;;;;;;8.75;3.38;;;22.30;99.90;;;;;;5012573;28;20041;-80
2023/05/27 10:42:00;;;;;;;8.30;3.00;;;22.40;99.90;;;;;;5009859;28;20456;-78
2023/05/27 10:44:37;;;;;;;10.05;3.30;;;22.80;99.90;;;;;;4997048;28;20506;-80
2023/05/27 10:47:13;;;;;;;7.10;3.17;;;23.00;99.90;;;;;;4991698;28;20045;-78
2023/05/27 10:49:44;;;;;;;9.25;2.45;;;22.70;99.90;;;;;;5010733;28;20374;-77
2023/05/27 10:52:17;;;;;;;9.77;2.90;;;23.00;99.90;;;;;;5011909;28;20037;-86
2023/05/27 10:54:46;;;;;;;9.38;3.00;;;23.00;99.90;;;;;;5008611;28;20045;-81
2023/05/27 10:57:13;;;;;;;9.77;3.10;;;23.10;99.90;;;;;;5013402;28;20470;-79
2023/05/27 10:59:48;;;;;;;6.80;2.47;;;22.80;99.90;;;;;;5012388;28;20034;-81
2023/05/27 11:02:15;;;;;;;6.53;2.83;;;22.90;99.90;;;;;;5012165;28;20037;-77
2023/05/27 11:04:41;;;;;;;5.47;2.42;;;22.90;99.90;;;;;;5011347;28;20033;-76
2023/05/27 11:07:07;;;;;;;5.70;3.28;;;22.80;99.90;;;;;;5011518;28;20033;-77
2023/05/27 11:10:04;;;;;;;7.07;2.50;;;23.20;99.90;;;;;;5012355;28;20470;-78
2023/05/27 11:12:31;;;;;;;10.35;3.60;;;23.20;99.90;;;;;;5010916;28;20038;-78
2023/05/27 11:14:57;;;;;;;10.35;3.30;;;23.30;99.90;;;;;;5001111;28;20057;-78
2023/05/27 11:17:25;;;;;;;11.60;3.88;;;23.40;99.90;;;;;;5007075;28;20052;-76
2023/05/27 11:19:52;;;;;;;7.32;2.67;;;23.10;99.90;;;;;;5001963;28;20450;-76
2023/05/27 11:22:19;;;;;;;10.15;3.05;;;23.50;99.90;;;;;;5003615;28;20030;-75
2023/05/27 11:25:02;;;;;;;7.38;2.67;;;23.60;99.90;;;;;;5003799;28;20053;-76
2023/05/27 11:27:36;;;;;;;14.70;3.42;;;23.50;99.90;;;;;;5003094;28;20045;-76
2023/05/27 11:30:11;;;;;;;6.55;2.80;;;23.50;99.90;;;;;;5011727;28;20033;-78
2023/05/27 11:32:38;;;;;;;7.03;2.30;;;23.40;99.90;;;;;;5010737;28;20036;-76
2023/05/27 11:35:05;;;;;;;13.18;3.80;;;23.60;99.90;;;;;;5011939;28;20053;-75
2023/05/27 11:37:33;;;;;;;9.63;3.47;;;23.40;97.70;;;;;;5010332;28;20041;-76
2023/05/27 11:40:00;;;;;;;8.38;2.35;;;23.30;99.90;;;;;;5012427;28;20029;-76
2023/05/27 11:42:28;;;;;;;8.50;3.20;;;23.60;99.90;;;;;;5011416;28;20048;-77
2023/05/27 11:44:55;;;;;;;7.03;2.45;;;23.70;99.10;;;;;;5008430;28;20034;-78
2023/05/27 11:47:22;;;;;;;6.88;2.50;;;23.30;99.90;;;;;;5010812;28;20040;-79
2023/05/27 11:49:52;;;;;;;8.88;3.42;;;23.30;99.30;;;;;;5011825;28;20022;-74
2023/05/27 11:52:18;;;;;;;8.73;3.47;;;23.50;99.90;;;;;;5011916;28;20033;-75
2023/05/27 11:54:50;;;;;;;6.63;2.92;;;23.50;95.60;;;;;;5011015;28;20501;-75
2023/05/27 11:57:16;;;;;;;7.50;3.50;;;23.60;94.60;;;;;;5010496;28;20033;-77
2023/05/27 11:59:42;;;;;;;6.63;2.90;;;23.60;95.40;;;;;;5010199;28;20347;-75
2023/05/27 12:02:08;;;;;;;6.47;3.20;;;23.80;96.50;;;;;;5011277;28;20037;-77
2023/05/27 12:04:34;;;;;;;9.82;2.85;;;23.90;93.60;;;;;;5008902;28;20029;-75
2023/05/27 12:07:02;;;;;;;7.88;3.05;;;23.70;93.90;;;;;;5010497;28;20030;-76
2023/05/27 12:09:29;;;;;;;7.20;2.95;;;23.70;92.60;;;;;;5010906;28;20073;-76
2023/05/27 12:11:55;;;;;;;7.15;3.22;;;23.70;98.90;;;;;;5011652;28;20041;-75
2023/05/27 12:14:22;;;;;;;8.10;2.25;;;24.00;95.00;;;;;;5011809;28;20038;-77
2023/05/27 12:16:48;;;;;;;9.77;2.80;;;24.10;95.10;;;;;;5009319;28;20029;-77
2023/05/27 12:19:15;;;;;;;6.53;2.63;;;24.20;97.50;;;;;;5011425;28;20034;-75
2023/05/27 12:21:41;;;;;;;7.63;2.97;;;24.20;93.80;;;;;;5011107;28;20030;-75
2023/05/27 12:24:10;;;;;;;10.65;4.07;;;24.10;93.00;;;;;;5011752;28;20030;-75
2023/05/27 12:26:37;;;;;;;8.68;2.72;;;23.80;91.20;;;;;;5006382;28;20037;-76
2023/05/27 12:29:03;;;;;;;6.72;3.05;;;23.90;95.30;;;;;;5011474;28;20113;-75
2023/05/27 12:31:29;;;;;;;8.85;2.75;;;23.80;92.40;;;;;;5005600;28;20042;-76
2023/05/27 12:33:55;;;;;;;5.10;2.45;;;24.00;96.50;;;;;;5010852;28;20479;-76
2023/05/27 12:36:21;;;;;;;6.35;2.30;;;23.90;95.10;;;;;;5009047;28;20037;-77
2023/05/27 12:38:48;;;;;;;9.90;3.25;;;24.20;97.50;;;;;;5011269;28;20025;-75
2023/05/27 12:41:15;;;;;;;7.05;2.63;;;24.00;91.70;;;;;;5012149;28;20050;-76
2023/05/27 12:43:42;;;;;;;7.45;2.45;;;23.70;93.90;;;;;;5011969;28;20026;-77
2023/05/27 12:46:08;;;;;;;6.72;2.95;;;23.80;98.00;;;;;;5010335;28;20042;-76
2023/05/27 12:48:34;;;;;;;7.85;3.33;;;23.90;96.60;;;;;;5010722;28;20032;-76
2023/05/27 12:51:00;;;;;;;8.15;2.92;;;23.80;95.30;;;;;;5016475;28;20053;-77
2023/05/27 12:53:26;;;;;;;7.57;3.13;;;23.90;98.50;;;;;;5021921;28;20049;-79
2023/05/27 12:55:53;;;;;;;8.20;2.90;;;24.00;93.30;;;;;;5009773;28;20478;-78